Time;durP1;ratioP1;P1;durP2;ratioP2;P2;SDS_P1;SDS_P2;PMS_P1;PMS_P2;Temp;Humidity;BMP_temperature;BMP_pressure;BME280_temperature;BME280_humidity;BME280_pressure;Samples;Min_cycle;Max_cycle;Signal;HPM_P1;HPM_P2
2022/06/22 00:00:18;;;;;;;0.20;0.20;;;9.70;99.90;;;;;;4873829;29;20043;-83
2022/06/22 00:02:47;;;;;;;0.57;0.50;;;8.70;99.90;;;;;;4875312;29;20080;-84
2022/06/22 00:05:17;;;;;;;0.35;0.35;;;8.70;99.90;;;;;;4861958;29;20040;-85
2022/06/22 00:07:49;;;;;;;0.60;0.45;;;8.60;99.90;;;;;;4858341;29;20657;-85
2022/06/22 00:11:10;;;;;;;0.20;0.20;;;8.60;99.90;;;;;;4869947;29;20527;-85
2022/06/22 00:13:37;;;;;;;0.10;0.10;;;8.50;99.90;;;;;;4842472;29;20128;-85
2022/06/22 00:16:06;;;;;;;0.10;0.10;;;8.50;99.90;;;;;;4859795;29;20125;-85
2022/06/22 00:18:59;;;;;;;0.00;0.00;;;8.40;99.90;;;;;;4874837;29;20041;-85
2022/06/22 00:21:33;;;;;;;0.25;0.25;;;8.40;99.90;;;;;;4877974;29;20128;-85
2022/06/22 00:24:16;;;;;;;0.10;0.10;;;8.20;99.90;;;;;;4878046;29;20108;-85
2022/06/22 00:26:48;;;;;;;0.17;0.17;;;8.30;99.90;;;;;;4871159;29;20049;-85
2022/06/22 00:29:13;;;;;;;0.00;0.00;;;8.30;99.90;;;;;;4867230;29;20396;-85
2022/06/22 00:31:40;;;;;;;0.10;0.10;;;8.30;99.90;;;;;;4875773;29;20051;-85
2022/06/22 00:34:22;;;;;;;0.15;0.15;;;8.30;99.90;;;;;;4860134;29;20054;-85
2022/06/22 00:37:04;;;;;;;0.10;0.10;;;8.20;99.90;;;;;;4857471;29;20046;-83
2022/06/22 00:39:29;;;;;;;0.10;0.10;;;8.20;99.90;;;;;;4859897;29;20132;-83
2022/06/22 00:41:59;;;;;;;0.28;0.20;;;8.30;99.90;;;;;;4884682;29;20133;-83
2022/06/22 00:44:29;;;;;;;0.00;0.00;;;8.20;99.90;;;;;;4875792;29;20057;-84
2022/06/22 00:47:09;;;;;;;0.05;0.05;;;8.20;99.90;;;;;;4893395;29;20089;-83
2022/06/22 00:49:41;;;;;;;0.20;0.20;;;8.10;99.90;;;;;;4873127;29;20512;-83
2022/06/22 00:52:08;;;;;;;0.00;0.00;;;8.30;99.90;;;;;;4869628;29;20056;-83
2022/06/22 00:54:35;;;;;;;0.00;0.00;;;8.10;99.90;;;;;;4848268;29;20496;-85
2022/06/22 00:57:14;;;;;;;0.30;0.30;;;8.40;99.90;;;;;;4861093;29;20120;-85
2022/06/22 00:59:54;;;;;;;0.60;0.32;;;8.70;99.90;;;;;;4879706;29;20484;-85
2022/06/22 01:02:55;;;;;;;0.20;0.20;;;8.10;99.90;;;;;;4847776;29;20050;-85
2022/06/22 01:05:29;;;;;;;0.10;0.10;;;8.00;99.90;;;;;;4863024;29;20042;-85
2022/06/22 01:08:07;;;;;;;0.30;0.30;;;8.00;99.90;;;;;;4868990;29;20037;-85
2022/06/22 01:11:01;;;;;;;0.25;0.25;;;7.90;99.90;;;;;;4881750;29;20205;-85
2022/06/22 01:13:38;;;;;;;0.20;0.15;;;7.90;99.90;;;;;;4862826;29;20384;-84
2022/06/22 01:16:24;;;;;;;0.43;0.38;;;7.80;99.90;;;;;;4866132;29;20037;-84
2022/06/22 01:19:26;;;;;;;0.10;0.10;;;7.80;99.90;;;;;;4865821;29;20049;-84
2022/06/22 01:22:11;;;;;;;0.10;0.10;;;7.70;99.90;;;;;;4880703;29;20044;-84
2022/06/22 01:25:21;;;;;;;0.10;0.10;;;7.70;99.90;;;;;;4865324;29;20037;-84
2022/06/22 01:27:47;;;;;;;0.00;0.00;;;7.70;99.90;;;;;;4860307;29;20053;-86
2022/06/22 01:30:26;;;;;;;0.10;0.10;;;7.70;99.90;;;;;;4881824;29;20148;-86
2022/06/22 01:32:53;;;;;;;0.00;0.00;;;7.70;99.90;;;;;;4865346;29;20044;-85
2022/06/22 01:35:32;;;;;;;0.35;0.35;;;7.60;99.90;;;;;;4871261;29;20049;-86
2022/06/22 01:37:58;;;;;;;0.03;0.03;;;7.60;99.90;;;;;;4881889;29;20119;-86
2022/06/22 01:40:36;;;;;;;0.73;0.70;;;7.60;99.90;;;;;;4881231;29;20124;-86
2022/06/22 01:43:17;;;;;;;0.00;0.00;;;7.60;99.90;;;;;;4881418;29;20057;-86
2022/06/22 01:45:51;;;;;;;0.10;0.10;;;7.60;99.90;;;;;;4880974;29;20052;-86
2022/06/22 01:48:27;;;;;;;0.20;0.10;;;6.60;99.90;;;;;;4881514;29;20440;-86
2022/06/22 01:50:59;;;;;;;0.17;0.17;;;7.60;99.90;;;;;;4865952;29;20037;-86
2022/06/22 01:53:37;;;;;;;0.20;0.20;;;7.60;99.90;;;;;;4865774;29;20045;-86
2022/06/22 01:56:42;;;;;;;0.28;0.28;;;7.60;99.90;;;;;;4881162;29;20041;-86
2022/06/22 01:59:19;;;;;;;0.10;0.10;;;7.70;99.90;;;;;;4846176;29;20045;-87
2022/06/22 02:02:20;;;;;;;0.05;0.05;;;7.60;99.90;;;;;;4875953;29;20053;-85
2022/06/22 02:05:10;;;;;;;0.00;0.00;;;7.60;99.90;;;;;;4879152;29;20561;-85
2022/06/22 02:08:04;;;;;;;0.22;0.22;;;7.60;99.90;;;;;;4860816;29;20053;-85
2022/06/22 02:10:47;;;;;;;0.10;0.10;;;7.60;99.90;;;;;;4865193;29;20049;-85
2022/06/22 02:13:22;;;;;;;0.10;0.10;;;7.60;99.90;;;;;;4865381;29;20407;-85
2022/06/22 02:15:54;;;;;;;0.30;0.30;;;7.60;99.90;;;;;;4864308;29;20037;-85
2022/06/22 02:18:33;;;;;;;0.05;0.05;;;7.60;99.90;;;;;;4865573;29;20043;-84
2022/06/22 02:21:02;;;;;;;0.30;0.30;;;7.60;99.90;;;;;;4880924;29;20123;-84
2022/06/22 02:23:32;;;;;;;1.10;0.68;;;7.50;99.90;;;;;;4865375;29;20041;-84
2022/06/22 02:26:20;;;;;;;0.85;0.63;;;7.50;99.90;;;;;;4896128;29;20037;-84
2022/06/22 02:28:46;;;;;;;0.00;0.00;;;7.50;99.90;;;;;;4930502;23;20053;-85
2022/06/22 02:31:13;;;;;;;0.20;0.20;;;7.50;99.90;;;;;;4864967;29;20060;-85
2022/06/22 02:33:43;;;;;;;0.10;0.10;;;7.60;99.90;;;;;;4880671;29;20540;-85
2022/06/22 02:36:11;;;;;;;0.20;0.20;;;7.40;99.90;;;;;;4865374;29;20397;-84
2022/06/22 02:38:38;;;;;;;0.10;0.10;;;7.40;99.90;;;;;;4860565;29;20125;-85
2022/06/22 02:46:40;;;;;;;0.30;0.30;;;7.20;99.90;;;;;;4862078;29;20045;-85
2022/06/22 02:49:12;;;;;;;0.10;0.10;;;7.30;99.90;;;;;;4861165;29;20404;-85
2022/06/22 02:51:44;;;;;;;0.20;0.15;;;7.30;99.90;;;;;;4861805;29;20060;-84
2022/06/22 02:54:30;;;;;;;0.22;0.22;;;7.30;99.90;;;;;;4861947;29;20045;-84
2022/06/22 02:57:19;;;;;;;0.10;0.10;;;7.40;99.90;;;;;;4861765;29;20050;-84
2022/06/22 02:59:46;;;;;;;0.98;0.40;;;7.40;99.90;;;;;;4845410;29;20124;-84
2022/06/22 03:02:12;;;;;;;0.45;0.43;;;7.30;99.90;;;;;;4861495;29;20097;-84
2022/06/22 03:04:42;;;;;;;0.90;0.65;;;7.30;99.90;;;;;;4861305;29;20624;-84
2022/06/22 03:07:08;;;;;;;0.22;0.22;;;7.30;99.90;;;;;;4843186;29;20048;-84
2022/06/22 03:09:36;;;;;;;0.20;0.20;;;7.30;99.90;;;;;;4842980;29;20049;-84
2022/06/22 03:12:02;;;;;;;0.52;0.52;;;7.40;99.90;;;;;;4855956;29;20101;-84
2022/06/22 03:14:35;;;;;;;0.52;0.52;;;7.40;99.90;;;;;;4892599;29;20045;-83
2022/06/22 03:17:10;;;;;;;0.10;0.10;;;7.40;99.90;;;;;;4864640;29;20080;-84
2022/06/22 03:19:41;;;;;;;0.30;0.30;;;7.40;99.90;;;;;;4880230;29;20080;-84
2022/06/22 03:22:14;;;;;;;0.65;0.65;;;7.30;99.90;;;;;;4845867;29;20102;-84
2022/06/22 03:24:51;;;;;;;0.20;0.20;;;7.30;99.90;;;;;;4842594;29;20050;-85
2022/06/22 03:27:30;;;;;;;0.20;0.20;;;7.40;99.90;;;;;;4852584;29;20392;-86
2022/06/22 03:30:02;;;;;;;0.20;0.20;;;7.50;99.90;;;;;;4860848;29;20089;-85
2022/06/22 03:32:42;;;;;;;0.17;0.17;;;7.40;99.90;;;;;;4845134;29;20516;-86
2022/06/22 03:35:17;;;;;;;0.10;0.10;;;7.40;99.90;;;;;;4861366;29;20049;-85
2022/06/22 03:37:56;;;;;;;0.10;0.10;;;7.40;99.90;;;;;;4860582;29;20052;-85
2022/06/22 03:40:34;;;;;;;0.10;0.10;;;7.50;99.90;;;;;;4860551;29;20499;-84
2022/06/22 03:43:11;;;;;;;0.05;0.05;;;7.50;99.90;;;;;;4875071;29;20042;-84
2022/06/22 03:45:46;;;;;;;0.10;0.10;;;7.50;99.90;;;;;;4860651;29;20493;-84
2022/06/22 03:48:25;;;;;;;0.10;0.10;;;7.50;99.90;;;;;;4860785;29;20079;-84
2022/06/22 03:51:03;;;;;;;0.20;0.20;;;7.50;99.90;;;;;;4860723;29;20080;-84
2022/06/22 03:53:36;;;;;;;0.05;0.05;;;7.80;99.90;;;;;;4860057;29;20481;-84
2022/06/22 03:56:05;;;;;;;0.25;0.25;;;7.70;99.90;;;;;;4860541;29;20045;-83
2022/06/22 03:58:31;;;;;;;0.13;0.13;;;7.70;99.90;;;;;;4859577;29;20052;-82
2022/06/22 04:00:58;;;;;;;0.10;0.10;;;7.70;99.90;;;;;;4844515;29;20041;-82
2022/06/22 04:03:24;;;;;;;0.10;0.10;;;7.80;99.90;;;;;;4859604;29;20456;-83
2022/06/22 04:05:55;;;;;;;0.28;0.28;;;8.10;99.90;;;;;;4859960;29;20045;-82
2022/06/22 04:08:38;;;;;;;0.13;0.10;;;8.10;99.90;;;;;;4860629;29;20037;-82
2022/06/22 04:11:24;;;;;;;0.10;0.10;;;8.10;99.90;;;;;;4860257;29;20070;-82
2022/06/22 04:14:06;;;;;;;0.08;0.08;;;8.20;99.90;;;;;;4854080;29;20069;-82
2022/06/22 04:16:38;;;;;;;0.10;0.10;;;8.20;99.90;;;;;;4826935;29;20042;-82
2022/06/22 04:19:24;;;;;;;0.32;0.30;;;8.30;99.90;;;;;;4826823;29;20045;-82
2022/06/22 04:22:00;;;;;;;0.15;0.15;;;8.40;99.90;;;;;;4841585;29;20042;-82
2022/06/22 04:24:41;;;;;;;0.10;0.10;;;8.50;99.90;;;;;;4865197;29;20082;-82
2022/06/22 04:27:18;;;;;;;0.17;0.17;;;8.60;99.90;;;;;;4857562;29;20484;-82
2022/06/22 04:29:46;;;;;;;;;;;8.50;99.90;;;;;;4885107;29;20053;-82
2022/06/22 04:32:23;;;;;;;0.28;0.28;;;9.40;99.90;;;;;;4861154;29;20283;-82
2022/06/22 04:35:01;;;;;;;0.00;0.00;;;8.70;99.90;;;;;;4865554;29;20052;-82
2022/06/22 04:37:47;;;;;;;0.00;0.00;;;9.30;99.90;;;;;;4850989;29;20124;-82
2022/06/22 04:40:34;;;;;;;0.30;0.30;;;8.90;99.90;;;;;;4850807;29;20087;-83
2022/06/22 04:43:03;;;;;;;0.00;0.00;;;8.90;99.90;;;;;;4866216;29;20429;-82
2022/06/22 04:45:31;;;;;;;0.10;0.10;;;8.90;99.90;;;;;;4864984;29;20045;-82
2022/06/22 04:48:03;;;;;;;0.00;0.00;;;9.10;99.90;;;;;;4866000;29;20128;-86
2022/06/22 04:50:29;;;;;;;0.00;0.00;;;9.20;99.90;;;;;;4866205;29;20056;-85
2022/06/22 04:52:58;;;;;;;0.05;0.05;;;9.30;99.90;;;;;;4866239;29;20461;-85
2022/06/22 04:55:26;;;;;;;0.00;0.00;;;9.50;99.90;;;;;;4865656;29;20085;-86
2022/06/22 04:57:55;;;;;;;0.38;0.38;;;9.70;99.90;;;;;;4855972;29;20048;-88
2022/06/22 05:00:28;;;;;;;0.13;0.13;;;9.80;99.90;;;;;;4875339;29;20060;-87
2022/06/22 05:03:04;;;;;;;0.20;0.20;;;9.90;99.90;;;;;;4866224;29;20042;-86
2022/06/22 05:05:33;;;;;;;0.00;0.00;;;10.10;99.90;;;;;;4850600;29;20049;-86
2022/06/22 05:08:36;;;;;;;0.05;0.05;;;10.30;99.90;;;;;;4865433;29;20098;-86
2022/06/22 05:11:10;;;;;;;0.28;0.28;;;10.50;99.90;;;;;;4832374;29;20050;-85
2022/06/22 05:13:43;;;;;;;0.20;0.20;;;10.70;99.90;;;;;;4865722;29;20044;-85
2022/06/22 05:16:15;;;;;;;0.17;0.17;;;10.90;99.90;;;;;;4884344;29;20053;-85
2022/06/22 05:18:43;;;;;;;0.35;0.20;;;11.10;99.90;;;;;;4874211;29;20049;-86
2022/06/22 05:21:30;;;;;;;0.00;0.00;;;11.30;99.90;;;;;;4866123;29;20211;-84
2022/06/22 05:24:00;;;;;;;0.10;0.10;;;11.50;99.90;;;;;;4870980;29;20380;-83
2022/06/22 05:26:28;;;;;;;0.45;0.45;;;11.60;99.90;;;;;;4852718;29;20045;-84
2022/06/22 05:29:10;;;;;;;0.05;0.05;;;12.00;99.90;;;;;;4875803;29;20058;-83
2022/06/22 05:31:41;;;;;;;0.30;0.30;;;14.10;99.90;;;;;;4865718;29;20041;-84
2022/06/22 05:34:13;;;;;;;0.20;0.20;;;15.10;99.90;;;;;;4866000;29;20053;-83
2022/06/22 05:36:45;;;;;;;0.25;0.22;;;15.60;99.90;;;;;;4863358;29;20058;-85
2022/06/22 05:39:12;;;;;;;0.15;0.10;;;16.60;99.90;;;;;;4861361;29;20121;-85
2022/06/22 05:41:42;;;;;;;0.10;0.10;;;17.60;99.90;;;;;;4877416;29;20042;-85
2022/06/22 05:44:13;;;;;;;0.13;0.13;;;18.60;99.90;;;;;;4862749;29;20104;-85
2022/06/22 05:46:51;;;;;;;0.10;0.10;;;19.50;99.90;;;;;;4862569;29;20077;-86
2022/06/22 05:49:18;;;;;;;0.05;0.05;;;20.30;99.90;;;;;;4861267;29;20045;-86
2022/06/22 05:52:35;;;;;;;0.45;0.30;;;21.10;99.90;;;;;;4861292;29;20556;-86
2022/06/22 05:55:12;;;;;;;1.20;1.10;;;21.70;99.90;;;;;;4845958;29;20097;-87
2022/06/22 05:58:00;;;;;;;0.28;0.28;;;22.60;99.90;;;;;;4845984;29;20052;-87
2022/06/22 06:00:39;;;;;;;0.40;0.40;;;23.10;99.90;;;;;;4845209;29;20065;-87
2022/06/22 06:03:12;;;;;;;0.22;0.22;;;23.40;99.80;;;;;;4846709;29;20124;-86
2022/06/22 06:05:56;;;;;;;0.00;0.00;;;23.70;99.30;;;;;;4861160;29;20106;-87
2022/06/22 06:08:57;;;;;;;0.35;0.28;;;23.80;98.20;;;;;;4857188;29;20052;-86
2022/06/22 06:11:33;;;;;;;0.10;0.10;;;24.00;97.80;;;;;;4843771;29;20081;-85
2022/06/22 06:14:08;;;;;;;0.00;0.00;;;24.40;99.10;;;;;;4859291;29;20053;-85
2022/06/22 06:16:56;;;;;;;0.10;0.10;;;24.90;97.40;;;;;;4862462;29;20042;-85
2022/06/22 06:19:25;;;;;;;0.30;0.25;;;25.50;96.00;;;;;;4862456;29;20310;-85
2022/06/22 06:22:00;;;;;;;0.40;0.38;;;25.00;95.20;;;;;;4862079;29;20049;-85
2022/06/22 06:24:36;;;;;;;0.10;0.10;;;25.30;97.80;;;;;;4854414;29;20041;-85
2022/06/22 06:30:18;;;;;;;0.30;0.30;;;26.00;93.60;;;;;;4880209;29;20061;-86
2022/06/22 06:33:12;;;;;;;0.15;0.13;;;26.00;93.90;;;;;;4828160;29;20462;-87
2022/06/22 06:36:05;;;;;;;0.20;0.20;;;26.30;93.60;;;;;;4841864;29;20053;-86
2022/06/22 06:39:02;;;;;;;0.10;0.10;;;26.70;92.80;;;;;;4860964;29;20045;-86
2022/06/22 06:41:40;;;;;;;0.00;0.00;;;27.00;93.10;;;;;;4861063;29;20132;-86
2022/06/22 06:44:22;;;;;;;0.00;0.00;;;27.50;92.10;;;;;;4846872;29;20081;-85
2022/06/22 06:46:56;;;;;;;0.00;0.00;;;28.00;92.00;;;;;;4860808;29;20056;-85
2022/06/22 06:49:30;;;;;;;0.20;0.20;;;28.40;90.10;;;;;;4839689;29;20041;-86
2022/06/22 06:52:01;;;;;;;0.10;0.10;;;29.10;88.50;;;;;;4843293;29;20072;-86
2022/06/22 06:54:42;;;;;;;0.35;0.30;;;29.40;85.70;;;;;;4848479;29;20404;-85
2022/06/22 06:57:15;;;;;;;0.10;0.10;;;29.50;81.30;;;;;;4845254;29;20049;-85
2022/06/22 06:59:44;;;;;;;0.20;0.20;;;29.20;82.20;;;;;;4847890;29;20571;-86
2022/06/22 07:02:41;;;;;;;0.10;0.10;;;29.20;84.20;;;;;;4855039;29;20038;-86
2022/06/22 07:05:14;;;;;;;0.20;0.20;;;29.20;82.60;;;;;;4847541;29;20049;-86
2022/06/22 07:07:53;;;;;;;0.28;0.28;;;29.60;80.20;;;;;;4852235;29;20084;-86
2022/06/22 07:10:38;;;;;;;0.28;0.28;;;29.60;81.20;;;;;;4857036;29;20247;-86
2022/06/22 07:13:15;;;;;;;0.20;0.20;;;29.70;77.90;;;;;;4842188;29;20115;-87
2022/06/22 07:15:46;;;;;;;0.20;0.20;;;29.70;77.10;;;;;;4854776;29;20093;-87
2022/06/22 07:18:46;;;;;;;0.10;0.10;;;29.60;78.50;;;;;;4845928;29;20050;-86
2022/06/22 07:21:23;;;;;;;0.10;0.10;;;29.40;75.40;;;;;;4850446;29;20136;-86
2022/06/22 07:23:59;;;;;;;0.20;0.20;;;29.60;78.20;;;;;;4827552;29;20049;-86
2022/06/22 07:26:40;;;;;;;0.32;0.30;;;29.70;76.40;;;;;;4829539;29;20041;-86
2022/06/22 07:29:15;;;;;;;0.05;0.05;;;30.20;76.30;;;;;;4845504;29;20061;-84
2022/06/22 07:31:51;;;;;;;0.10;0.10;;;30.50;77.70;;;;;;4845536;29;20326;-84
2022/06/22 07:34:31;;;;;;;0.10;0.10;;;30.50;74.00;;;;;;4861150;29;20064;-83
2022/06/22 07:37:00;;;;;;;0.20;0.20;;;30.10;73.40;;;;;;4859508;29;20049;-83
2022/06/22 07:39:32;;;;;;;0.10;0.10;;;30.10;73.00;;;;;;4845576;29;20486;-83
2022/06/22 07:41:59;;;;;;;0.10;0.10;;;30.60;77.00;;;;;;4858420;29;20041;-83
2022/06/22 07:44:30;;;;;;;0.10;0.10;;;31.30;72.20;;;;;;4860798;29;20052;-83
2022/06/22 07:47:05;;;;;;;1.50;0.30;;;31.80;70.60;;;;;;4847368;29;20053;-83
2022/06/22 07:49:50;;;;;;;0.22;0.22;;;31.90;69.70;;;;;;4842494;29;20102;-83
2022/06/22 07:52:20;;;;;;;0.10;0.10;;;31.80;69.30;;;;;;4843968;29;20490;-83
2022/06/22 07:55:00;;;;;;;0.70;0.55;;;31.70;69.20;;;;;;4858991;29;20050;-83
2022/06/22 07:57:40;;;;;;;0.30;0.30;;;32.00;68.10;;;;;;4861363;29;20553;-83
2022/06/22 08:00:16;;;;;;;0.10;0.10;;;32.10;70.40;;;;;;4860075;29;20100;-82
2022/06/22 08:03:03;;;;;;;0.13;0.13;;;32.40;69.10;;;;;;4849219;29;20105;-82
2022/06/22 08:05:34;;;;;;;0.22;0.22;;;32.90;68.10;;;;;;4860744;29;20405;-82
2022/06/22 08:08:06;;;;;;;0.20;0.20;;;33.10;67.30;;;;;;4860033;29;20037;-82
2022/06/22 08:10:43;;;;;;;0.30;0.30;;;33.40;67.70;;;;;;4845726;29;20137;-82
2022/06/22 08:13:22;;;;;;;0.20;0.20;;;33.60;65.30;;;;;;4863660;29;20076;-82
2022/06/22 08:16:14;;;;;;;0.10;0.10;;;33.80;64.80;;;;;;4875609;29;20045;-83
2022/06/22 08:18:42;;;;;;;0.20;0.20;;;34.10;62.00;;;;;;4839617;29;20076;-83
2022/06/22 08:21:13;;;;;;;0.20;0.20;;;34.00;63.80;;;;;;4841839;29;20073;-82
2022/06/22 08:23:39;;;;;;;0.20;0.20;;;33.60;64.30;;;;;;4854171;29;20049;-84
2022/06/22 08:26:09;;;;;;;0.30;0.30;;;33.50;61.10;;;;;;4858507;29;20128;-84
2022/06/22 08:28:38;;;;;;;0.10;0.10;;;33.40;62.10;;;;;;4883704;23;20057;-81
2022/06/22 08:31:04;;;;;;;0.30;0.22;;;33.10;64.00;;;;;;4888796;29;20056;-81
2022/06/22 08:33:41;;;;;;;0.35;0.30;;;32.90;64.70;;;;;;4892685;29;20072;-81
2022/06/22 08:36:16;;;;;;;0.22;0.22;;;33.00;65.30;;;;;;4897211;29;20047;-80
2022/06/22 08:38:54;;;;;;;0.10;0.10;;;33.60;63.70;;;;;;4880803;29;20041;-81
2022/06/22 08:41:28;;;;;;;0.20;0.20;;;33.80;63.30;;;;;;4877194;29;20072;-81
2022/06/22 08:44:15;;;;;;;0.10;0.10;;;34.30;64.50;;;;;;4891515;29;20048;-81
2022/06/22 08:47:09;;;;;;;0.20;0.20;;;34.90;63.10;;;;;;4887188;29;20048;-81
2022/06/22 08:50:00;;;;;;;0.20;0.20;;;35.20;62.70;;;;;;4890358;29;20078;-81
2022/06/22 08:52:44;;;;;;;0.10;0.10;;;35.30;62.50;;;;;;4890239;29;20069;-81
2022/06/22 08:55:29;;;;;;;0.10;0.10;;;34.60;63.30;;;;;;4885813;29;20048;-81
2022/06/22 08:58:27;;;;;;;0.10;0.10;;;34.90;61.80;;;;;;4871415;29;20784;-80
2022/06/22 09:01:24;;;;;;;0.30;0.30;;;34.80;60.30;;;;;;4891173;29;20493;-81
2022/06/22 09:04:08;;;;;;;0.30;0.30;;;34.60;61.70;;;;;;4888524;29;20052;-81
2022/06/22 09:07:06;;;;;;;0.10;0.10;;;35.30;62.90;;;;;;4889448;29;20063;-81
2022/06/22 09:09:48;;;;;;;0.20;0.20;;;35.90;61.90;;;;;;4875190;29;20048;-81
2022/06/22 09:12:53;;;;;;;0.43;0.40;;;36.40;59.00;;;;;;4894645;29;20047;-81
2022/06/22 09:16:02;;;;;;;0.60;0.60;;;36.00;59.20;;;;;;4866230;29;20055;-85
2022/06/22 09:18:52;;;;;;;0.40;0.40;;;35.50;58.60;;;;;;4865998;29;20080;-85
2022/06/22 09:21:39;;;;;;;0.10;0.10;;;35.00;60.10;;;;;;4881658;29;20045;-85
2022/06/22 09:24:29;;;;;;;0.65;0.32;;;35.00;58.80;;;;;;4881773;29;20057;-85
2022/06/22 09:27:19;;;;;;;0.05;0.05;;;34.50;58.50;;;;;;4880987;29;20045;-85
2022/06/22 09:30:09;;;;;;;0.20;0.20;;;34.00;59.70;;;;;;4869205;29;20115;-85
2022/06/22 09:32:42;;;;;;;0.73;0.73;;;34.40;58.90;;;;;;4879196;29;20407;-85
2022/06/22 09:35:20;;;;;;;1.27;0.60;;;35.00;58.40;;;;;;4893017;29;20044;-85
2022/06/22 09:38:13;;;;;;;0.17;0.17;;;35.20;59.20;;;;;;4899366;29;20072;-84
2022/06/22 09:40:51;;;;;;;0.15;0.15;;;35.70;60.90;;;;;;4907813;29;20052;-85
2022/06/22 09:43:44;;;;;;;0.10;0.10;;;36.20;58.20;;;;;;4876403;29;20052;-85
2022/06/22 09:46:36;;;;;;;0.10;0.10;;;35.90;56.10;;;;;;4884168;29;20137;-81
2022/06/22 09:49:07;;;;;;;3.67;0.80;;;35.60;57.60;;;;;;4900289;29;20045;-81
2022/06/22 09:51:47;;;;;;;0.15;0.15;;;35.50;55.70;;;;;;4875265;29;20041;-81
2022/06/22 09:56:19;;;;;;;0.30;0.30;;;35.20;57.40;;;;;;4867333;29;20134;-81
2022/06/22 09:57:10;;;;;;;;;;;35.50;59.90;;;;;;4892959;29;20053;-81
2022/06/22 09:59:52;;;;;;;0.25;0.20;;;36.00;58.10;;;;;;4899422;29;19963;-81
2022/06/22 10:02:36;;;;;;;0.20;0.20;;;36.50;57.70;;;;;;4898618;29;20077;-81
2022/06/22 10:05:37;;;;;;;0.10;0.10;;;36.80;56.00;;;;;;4896028;29;20037;-81
2022/06/22 10:08:27;;;;;;;0.63;0.40;;;36.40;56.90;;;;;;4884831;29;20041;-81
2022/06/22 10:11:28;;;;;;;0.10;0.10;;;36.00;55.80;;;;;;4899729;29;20044;-81
2022/06/22 10:13:56;;;;;;;0.10;0.10;;;35.90;56.20;;;;;;4910297;29;20044;-81
2022/06/22 10:16:22;;;;;;;0.82;0.60;;;36.20;56.50;;;;;;4896398;29;20098;-81
2022/06/22 10:19:09;;;;;;;0.17;0.17;;;36.00;55.30;;;;;;4900716;29;20492;-81
2022/06/22 10:21:54;;;;;;;0.10;0.10;;;36.00;56.10;;;;;;4891550;29;20434;-81
2022/06/22 10:24:57;;;;;;;0.73;0.63;;;36.10;55.70;;;;;;4890011;29;20084;-81
2022/06/22 10:27:56;;;;;;;0.65;0.65;;;35.70;56.20;;;;;;4892438;29;20531;-81
2022/06/22 10:30:53;;;;;;;0.20;0.20;;;35.40;57.80;;;;;;4871906;29;20067;-81
2022/06/22 10:33:35;;;;;;;0.20;0.20;;;35.50;55.60;;;;;;4892060;29;20140;-81
2022/06/22 10:36:41;;;;;;;0.10;0.10;;;35.20;56.00;;;;;;4894843;29;20044;-81
2022/06/22 10:39:46;;;;;;;0.20;0.20;;;35.00;57.50;;;;;;4874671;29;20033;-81
2022/06/22 10:45:44;;;;;;;;;;;34.50;57.70;;;;;;4892515;29;20040;-81
2022/06/22 10:48:35;;;;;;;0.25;0.25;;;34.30;57.40;;;;;;4896444;29;19971;-81
2022/06/22 10:51:00;;;;;;;0.10;0.10;;;34.20;58.40;;;;;;4888057;29;20040;-81
2022/06/22 10:53:38;;;;;;;0.00;0.00;;;33.70;57.40;;;;;;4891986;29;20127;-80
2022/06/22 10:56:31;;;;;;;0.45;0.43;;;34.10;59.30;;;;;;4892644;29;20076;-81
2022/06/22 10:59:22;;;;;;;0.10;0.10;;;34.50;57.60;;;;;;4893377;29;20412;-81
2022/06/22 11:02:09;;;;;;;0.10;0.10;;;34.40;57.70;;;;;;4886132;29;20064;-81
2022/06/22 11:04:50;;;;;;;0.35;0.35;;;34.30;57.20;;;;;;4895062;29;20044;-80
2022/06/22 11:07:22;;;;;;;0.10;0.10;;;34.30;56.90;;;;;;4907488;29;20090;-81
2022/06/22 11:10:23;;;;;;;0.00;0.00;;;34.60;57.80;;;;;;4889056;29;20047;-81
2022/06/22 11:13:05;;;;;;;0.98;0.90;;;35.00;58.50;;;;;;4881568;29;20045;-81
2022/06/22 11:16:01;;;;;;;0.32;0.30;;;35.50;56.70;;;;;;4892244;29;20044;-81
2022/06/22 11:18:29;;;;;;;;;;;35.80;56.60;;;;;;4876479;29;20049;-81
2022/06/22 11:21:42;;;;;;;0.00;0.00;;;35.70;57.80;;;;;;4891695;29;19985;-81
2022/06/22 11:24:46;;;;;;;0.10;0.10;;;35.70;57.80;;;;;;4855209;29;20491;-81
2022/06/22 11:30:53;;;;;;;0.03;0.03;;;34.20;55.90;;;;;;4887425;29;20499;-85
2022/06/22 11:33:38;;;;;;;;;;;33.70;57.90;;;;;;4889562;29;20040;-85
2022/06/22 11:36:26;;;;;;;0.22;0.10;;;33.10;59.20;;;;;;4880879;29;19942;-85
2022/06/22 11:38:58;;;;;;;0.10;0.10;;;33.20;58.30;;;;;;4871449;29;20123;-85
2022/06/22 11:42:06;;;;;;;1.65;0.20;;;33.00;56.10;;;;;;4887512;29;20048;-85
2022/06/22 11:47:55;;;;;;;0.10;0.10;;;33.60;58.80;;;;;;4892602;29;20048;-81
2022/06/22 11:50:49;;;;;;;0.28;0.28;;;34.20;58.00;;;;;;4879389;29;20040;-81
2022/06/22 11:53:35;;;;;;;0.25;0.25;;;34.80;57.90;;;;;;4897048;29;20414;-81
2022/06/22 11:56:03;;;;;;;;;;;35.30;57.60;;;;;;4906481;29;20044;-81
2022/06/22 11:58:54;;;;;;;0.57;0.55;;;35.50;57.00;;;;;;4887964;29;19926;-82
2022/06/22 12:01:38;;;;;;;0.75;0.10;;;35.70;56.20;;;;;;4896742;29;20044;-86
2022/06/22 12:04:26;;;;;;;0.47;0.10;;;35.40;55.60;;;;;;4889666;29;20084;-86
2022/06/22 12:07:00;;;;;;;0.20;0.20;;;35.30;56.60;;;;;;4871546;29;20408;-85
2022/06/22 12:09:42;;;;;;;0.63;0.63;;;35.00;57.40;;;;;;4875364;29;21226;-86
2022/06/22 12:12:26;;;;;;;0.00;0.00;;;35.10;54.80;;;;;;4887594;29;20045;-85
2022/06/22 12:15:16;;;;;;;0.20;0.20;;;35.20;57.90;;;;;;4889757;29;20045;-85
2022/06/22 12:18:05;;;;;;;0.10;0.10;;;35.00;56.90;;;;;;4863423;29;20049;-85
2022/06/22 12:21:03;;;;;;;0.30;0.30;;;34.70;55.90;;;;;;4885004;29;20037;-85
2022/06/22 12:23:49;;;;;;;0.98;0.75;;;34.20;56.30;;;;;;4897250;29;20052;-86
2022/06/22 12:26:27;;;;;;;0.30;0.20;;;34.10;57.00;;;;;;4899305;29;20391;-85
2022/06/22 12:28:59;;;;;;;0.13;0.13;;;34.20;56.60;;;;;;4898924;29;20074;-86
2022/06/22 12:31:36;;;;;;;0.10;0.10;;;34.30;59.20;;;;;;4883680;29;20053;-85
2022/06/22 12:34:16;;;;;;;0.10;0.10;;;34.60;57.40;;;;;;4887080;29;20060;-85
2022/06/22 12:36:50;;;;;;;2.63;0.82;;;34.50;56.80;;;;;;4888594;29;20128;-85
2022/06/22 12:39:25;;;;;;;1.20;0.70;;;34.60;57.30;;;;;;4887950;29;20080;-85
2022/06/22 12:42:25;;;;;;;0.20;0.20;;;34.70;57.50;;;;;;4901780;29;20060;-85
2022/06/22 12:44:50;;;;;;;0.13;0.13;;;34.20;56.30;;;;;;4871856;29;20064;-85
2022/06/22 12:47:37;;;;;;;1.38;1.00;;;33.90;59.40;;;;;;4890890;29;20040;-85
2022/06/22 12:50:44;;;;;;;0.43;0.35;;;34.00;59.40;;;;;;4894401;29;20077;-81
2022/06/22 12:53:15;;;;;;;0.10;0.10;;;34.00;58.40;;;;;;4875602;29;20063;-81
2022/06/22 12:55:47;;;;;;;0.15;0.15;;;34.20;58.40;;;;;;4909860;29;20395;-81
2022/06/22 12:58:31;;;;;;;0.25;0.25;;;34.30;57.50;;;;;;4895409;29;20128;-81
2022/06/22 13:00:58;;;;;;;0.10;0.10;;;34.20;57.60;;;;;;4876426;29;20502;-81
2022/06/22 13:03:31;;;;;;;0.03;0.03;;;34.10;59.30;;;;;;4882967;29;20044;-81
2022/06/22 13:05:57;;;;;;;0.90;0.43;;;33.80;58.50;;;;;;4878104;29;20047;-81
2022/06/22 13:08:25;;;;;;;0.03;0.03;;;33.40;59.60;;;;;;4864011;29;20041;-81
2022/06/22 13:10:56;;;;;;;0.08;0.08;;;33.00;58.80;;;;;;4886186;29;20048;-81
2022/06/22 13:13:50;;;;;;;0.10;0.10;;;32.60;57.80;;;;;;4896339;29;20049;-80
2022/06/22 13:16:43;;;;;;;0.10;0.10;;;32.60;59.00;;;;;;4892222;29;20089;-80
2022/06/22 13:19:36;;;;;;;0.00;0.00;;;32.90;59.00;;;;;;4887761;29;20036;-81
2022/06/22 13:22:26;;;;;;;0.43;0.43;;;32.80;59.10;;;;;;4884511;29;20079;-81
2022/06/22 13:25:08;;;;;;;0.03;0.03;;;32.90;58.30;;;;;;4876181;29;20067;-81
2022/06/22 13:28:09;;;;;;;0.50;0.30;;;33.10;58.60;;;;;;4891593;29;20040;-81
2022/06/22 13:30:44;;;;;;;0.00;0.00;;;33.40;58.50;;;;;;4890447;29;20057;-81
2022/06/22 13:33:34;;;;;;;0.00;0.00;;;33.50;58.80;;;;;;4892886;29;20079;-81
2022/06/22 13:36:18;;;;;;;0.30;0.30;;;33.10;59.40;;;;;;4875294;29;20060;-81
2022/06/22 13:38:50;;;;;;;0.10;0.10;;;32.80;60.30;;;;;;4875832;29;20049;-81
2022/06/22 13:41:34;;;;;;;0.10;0.10;;;32.60;59.60;;;;;;4873876;29;20079;-81
2022/06/22 13:44:00;;;;;;;0.10;0.10;;;32.20;60.30;;;;;;4888147;29;20052;-81
2022/06/22 13:46:48;;;;;;;0.45;0.40;;;32.00;62.80;;;;;;4888989;29;20040;-80
2022/06/22 13:49:40;;;;;;;0.30;0.30;;;31.50;62.50;;;;;;4887566;29;20057;-80
2022/06/22 13:52:36;;;;;;;0.03;0.03;;;30.80;64.50;;;;;;4890177;29;20134;-80
2022/06/22 13:55:25;;;;;;;0.10;0.10;;;30.80;65.10;;;;;;4871993;29;20079;-80
2022/06/22 13:58:20;;;;;;;0.35;0.22;;;31.00;63.90;;;;;;4886491;29;20053;-80
2022/06/22 14:01:14;;;;;;;0.13;0.13;;;31.10;64.50;;;;;;4888531;29;20044;-81
2022/06/22 14:04:03;;;;;;;0.20;0.20;;;30.60;63.70;;;;;;4887378;29;20061;-81
2022/06/22 14:06:52;;;;;;;0.30;0.30;;;30.10;64.90;;;;;;4890489;29;20052;-80
2022/06/22 14:09:34;;;;;;;0.85;0.77;;;29.70;66.40;;;;;;4872268;29;20052;-80
2022/06/22 14:12:31;;;;;;;0.10;0.10;;;29.40;68.20;;;;;;4889752;29;20408;-81
2022/06/22 14:14:57;;;;;;;0.13;0.13;;;29.10;68.20;;;;;;4883311;29;20116;-81
2022/06/22 14:17:38;;;;;;;0.43;0.40;;;28.60;70.30;;;;;;4897286;29;20058;-80